Time;durP1;ratioP1;P1;durP2;ratioP2;P2;SDS_P1;SDS_P2;PMS_P1;PMS_P2;Temp;Humidity;BMP_temperature;BMP_pressure;BME280_temperature;BME280_humidity;BME280_pressure;Samples;Min_cycle;Max_cycle;Signal;HPM_P1;HPM_P2
2024/02/01 00:02:25;;;;;;;26.80;11.30;;;8.10;99.90;;;;;;5032426;28;20025;-82
2024/02/01 00:04:50;;;;;;;24.83;11.10;;;8.10;99.90;;;;;;5031056;28;20028;-81
2024/02/01 00:07:16;;;;;;;24.42;11.38;;;8.00;99.90;;;;;;5036823;28;20109;-82
2024/02/01 00:09:42;;;;;;;24.55;11.65;;;8.00;99.90;;;;;;5027608;28;20101;-83
2024/02/01 00:12:07;;;;;;;28.48;11.38;;;8.00;99.90;;;;;;5031981;28;20024;-83
2024/02/01 00:14:33;;;;;;;22.10;11.70;;;8.00;99.90;;;;;;5041204;28;20037;-83
2024/02/01 00:16:58;;;;;;;23.40;10.95;;;8.10;99.90;;;;;;5027552;28;20029;-81
2024/02/01 00:19:24;;;;;;;25.13;11.65;;;8.00;99.90;;;;;;5037284;28;20506;-83
2024/02/01 00:21:50;;;;;;;22.90;11.20;;;8.00;99.90;;;;;;5032609;28;20017;-82
2024/02/01 00:24:16;;;;;;;23.02;10.32;;;8.00;99.90;;;;;;5035600;28;20028;-82
2024/02/01 00:26:41;;;;;;;30.48;10.95;;;8.00;99.90;;;;;;5035054;28;20024;-83
2024/02/01 00:29:07;;;;;;;29.52;12.18;;;8.00;99.90;;;;;;5027875;28;20071;-82
2024/02/01 00:31:32;;;;;;;28.75;11.68;;;8.00;99.90;;;;;;5028768;28;20025;-84
2024/02/01 00:34:00;;;;;;;30.90;10.90;;;8.00;99.90;;;;;;5035612;28;21417;-83
2024/02/01 00:36:26;;;;;;;21.15;11.25;;;8.00;99.90;;;;;;5029307;28;20102;-82
2024/02/01 00:38:51;;;;;;;25.75;11.50;;;8.00;99.90;;;;;;5028571;28;20037;-83
2024/02/01 00:41:17;;;;;;;26.25;11.80;;;8.00;99.90;;;;;;5028397;28;20018;-83
2024/02/01 00:43:43;;;;;;;26.77;12.60;;;8.00;99.90;;;;;;5032486;28;20014;-83
2024/02/01 00:46:09;;;;;;;24.40;11.65;;;8.00;99.90;;;;;;5031655;28;20014;-82
2024/02/01 00:48:35;;;;;;;26.67;11.98;;;8.00;99.90;;;;;;5035797;28;20104;-82
2024/02/01 00:51:00;;;;;;;20.98;11.15;;;8.00;99.90;;;;;;5035046;28;20060;-82
2024/02/01 00:53:27;;;;;;;23.85;12.27;;;8.00;99.90;;;;;;5031404;28;20102;-83
2024/02/01 00:55:53;;;;;;;27.50;12.63;;;8.00;99.90;;;;;;5034302;28;20020;-83
2024/02/01 00:58:18;;;;;;;24.95;12.70;;;8.00;99.90;;;;;;5033005;28;20381;-82
2024/02/01 01:00:44;;;;;;;23.55;12.18;;;8.00;99.90;;;;;;5038484;28;20159;-83
2024/02/01 01:03:10;;;;;;;28.27;12.75;;;8.10;99.90;;;;;;5032851;28;20499;-82
2024/02/01 01:05:36;;;;;;;27.60;12.15;;;8.00;99.90;;;;;;5036869;28;20028;-81
2024/02/01 01:08:01;;;;;;;27.13;11.52;;;8.10;99.90;;;;;;5028626;28;20052;-82
2024/02/01 01:10:27;;;;;;;23.42;12.77;;;8.00;99.90;;;;;;5033917;28;20049;-82
2024/02/01 01:12:52;;;;;;;25.00;12.40;;;8.00;99.90;;;;;;5035291;28;20523;-82
2024/02/01 01:15:18;;;;;;;26.00;11.82;;;8.00;99.90;;;;;;5039947;28;20021;-83
2024/02/01 01:17:44;;;;;;;27.10;11.73;;;8.00;99.90;;;;;;5029623;28;20032;-82
2024/02/01 01:20:10;;;;;;;24.70;12.07;;;8.00;99.90;;;;;;5029170;28;20018;-82
2024/02/01 01:22:35;;;;;;;22.65;11.10;;;8.00;99.90;;;;;;5030035;28;20417;-81
2024/02/01 01:25:01;;;;;;;25.55;12.35;;;8.00;99.90;;;;;;5038289;28;20021;-82
2024/02/01 01:27:26;;;;;;;25.40;11.43;;;8.10;99.90;;;;;;5036303;28;20535;-83
2024/02/01 01:29:52;;;;;;;24.58;11.70;;;8.00;99.90;;;;;;5026110;28;20053;-81
2024/02/01 01:32:17;;;;;;;25.63;11.27;;;8.10;99.90;;;;;;5036314;28;20029;-82
2024/02/01 01:34:43;;;;;;;25.48;11.40;;;8.10;99.90;;;;;;5037983;28;20053;-82
2024/02/01 01:37:09;;;;;;;28.67;11.82;;;8.00;99.90;;;;;;5037394;28;20021;-82
2024/02/01 01:39:35;;;;;;;25.30;11.45;;;8.00;99.90;;;;;;5041171;28;20446;-83
2024/02/01 01:42:00;;;;;;;28.30;11.80;;;8.00;99.90;;;;;;5028195;28;20027;-82
2024/02/01 01:44:26;;;;;;;23.83;10.20;;;8.10;99.90;;;;;;5031095;28;20021;-83
2024/02/01 01:46:52;;;;;;;25.30;11.40;;;8.00;99.90;;;;;;5037550;28;20029;-82
2024/02/01 01:49:18;;;;;;;24.73;12.13;;;8.00;99.90;;;;;;5040344;28;20029;-82
2024/02/01 01:51:46;;;;;;;22.50;11.50;;;8.00;99.90;;;;;;5040638;28;20052;-81
2024/02/01 01:54:12;;;;;;;25.73;12.13;;;8.00;99.90;;;;;;5036879;28;20080;-82
2024/02/01 01:56:39;;;;;;;28.50;11.18;;;8.00;99.90;;;;;;5030951;28;20060;-81
2024/02/01 01:59:06;;;;;;;22.10;11.27;;;8.00;99.90;;;;;;5034961;28;20051;-83
2024/02/01 02:01:36;;;;;;;24.63;11.35;;;8.00;99.90;;;;;;5039272;28;20025;-82
2024/02/01 02:04:05;;;;;;;;;;;8.00;99.90;;;;;;5037168;28;20029;-82
2024/02/01 02:06:31;;;;;;;20.77;9.60;;;8.00;99.90;;;;;;5027021;28;19909;-82
2024/02/01 02:08:58;;;;;;;24.15;11.00;;;8.00;99.90;;;;;;5030476;28;20025;-82
2024/02/01 02:11:24;;;;;;;23.65;12.23;;;8.00;99.90;;;;;;5038610;28;20021;-82
2024/02/01 02:13:51;;;;;;;21.60;11.60;;;8.00;99.90;;;;;;5037853;28;20025;-82
2024/02/01 02:16:17;;;;;;;27.00;11.45;;;8.00;99.90;;;;;;5038803;28;20020;-84
2024/02/01 02:18:43;;;;;;;21.20;11.13;;;8.10;99.90;;;;;;5029929;28;20419;-83
2024/02/01 02:21:11;;;;;;;21.23;10.43;;;8.00;99.90;;;;;;5034132;28;20096;-83
2024/02/01 02:23:37;;;;;;;30.65;12.40;;;8.00;99.90;;;;;;5034967;28;20018;-81
2024/02/01 02:26:07;;;;;;;27.95;11.55;;;8.10;99.90;;;;;;5036067;28;20113;-83
2024/02/01 02:28:35;;;;;;;26.07;10.70;;;8.00;99.90;;;;;;5038547;28;20025;-82
2024/02/01 02:31:03;;;;;;;20.92;11.02;;;8.10;99.90;;;;;;5033958;28;20279;-82
2024/02/01 02:33:28;;;;;;;22.77;10.75;;;8.00;99.90;;;;;;5035552;28;20032;-82
2024/02/01 02:35:54;;;;;;;22.42;10.82;;;8.10;99.90;;;;;;5035234;28;20025;-81
2024/02/01 02:38:22;;;;;;;20.00;10.05;;;8.00;99.90;;;;;;5039356;28;20159;-82
2024/02/01 02:40:48;;;;;;;20.90;9.90;;;8.00;99.90;;;;;;5037426;28;20017;-82
2024/02/01 02:43:13;;;;;;;25.52;11.25;;;8.10;99.90;;;;;;5031660;28;20022;-83
2024/02/01 02:45:39;;;;;;;25.88;10.45;;;8.00;99.90;;;;;;5030569;28;20056;-82
2024/02/01 02:48:06;;;;;;;22.77;9.73;;;8.00;99.90;;;;;;5033157;28;20029;-83
2024/02/01 02:50:32;;;;;;;25.58;10.25;;;8.00;99.90;;;;;;5031836;28;20017;-82
2024/02/01 02:52:57;;;;;;;19.98;9.85;;;8.00;99.90;;;;;;5036193;28;20035;-82
2024/02/01 02:55:23;;;;;;;24.75;9.32;;;8.00;99.90;;;;;;5030844;28;20629;-83
2024/02/01 02:57:48;;;;;;;22.08;9.43;;;8.00;99.90;;;;;;5026318;28;20376;-82
2024/02/01 03:00:18;;;;;;;25.33;9.57;;;8.00;99.90;;;;;;5032162;28;20113;-81
2024/02/01 03:02:47;;;;;;;21.58;9.13;;;8.00;99.90;;;;;;5035108;28;20105;-82
2024/02/01 03:05:15;;;;;;;20.08;9.65;;;8.00;99.90;;;;;;5035908;28;20025;-82
2024/02/01 03:07:41;;;;;;;20.25;9.57;;;8.00;99.90;;;;;;5030694;28;20025;-83
2024/02/01 03:10:07;;;;;;;22.98;9.27;;;8.00;99.90;;;;;;5046019;28;20021;-82
2024/02/01 03:12:32;;;;;;;18.40;9.63;;;8.00;99.90;;;;;;5042460;28;20025;-83
2024/02/01 03:14:58;;;;;;;20.45;9.30;;;8.00;99.90;;;;;;5039616;28;20112;-83
2024/02/01 03:17:23;;;;;;;21.67;9.20;;;8.00;99.90;;;;;;5038942;28;20021;-82
2024/02/01 03:19:52;;;;;;;21.02;9.93;;;8.00;99.90;;;;;;5037741;28;20025;-82
2024/02/01 03:22:19;;;;;;;21.17;9.80;;;8.10;99.90;;;;;;5032382;28;20052;-82
2024/02/01 03:24:58;;;;;;;19.60;9.50;;;8.00;99.90;;;;;;5036036;28;20594;-83
2024/02/01 03:27:27;;;;;;;17.10;8.93;;;8.10;99.90;;;;;;5034540;28;20025;-83
2024/02/01 03:29:52;;;;;;;23.85;9.80;;;8.10;99.90;;;;;;5039899;28;20028;-84
2024/02/01 03:32:18;;;;;;;18.85;8.75;;;8.00;99.90;;;;;;5027582;28;20013;-82
2024/02/01 03:34:44;;;;;;;24.35;9.45;;;8.10;99.90;;;;;;5036131;28;20036;-83
2024/02/01 03:37:14;;;;;;;23.73;9.75;;;8.00;99.90;;;;;;5033960;28;20025;-84
2024/02/01 03:39:41;;;;;;;20.08;10.02;;;8.10;99.90;;;;;;5033038;28;20018;-82
2024/02/01 03:42:06;;;;;;;23.67;9.07;;;8.00;99.90;;;;;;5037010;28;20025;-83
2024/02/01 03:44:37;;;;;;;18.33;8.77;;;8.00;99.90;;;;;;5034085;28;20032;-83
2024/02/01 03:47:09;;;;;;;21.60;8.55;;;8.00;99.90;;;;;;5032904;28;20029;-82
2024/02/01 03:49:39;;;;;;;21.27;9.70;;;8.00;99.90;;;;;;5037415;28;20021;-83
2024/02/01 03:52:06;;;;;;;;;;;8.00;99.90;;;;;;5034596;28;20021;-83
2024/02/01 03:54:31;;;;;;;22.48;8.68;;;8.10;99.90;;;;;;5033662;28;20290;-83
2024/02/01 03:56:57;;;;;;;22.90;10.00;;;8.10;99.90;;;;;;5032409;28;20035;-81
2024/02/01 03:59:22;;;;;;;19.17;9.18;;;8.10;99.90;;;;;;5044161;28;20013;-82
2024/02/01 04:01:48;;;;;;;20.83;10.02;;;8.10;99.90;;;;;;5036678;28;20072;-81
2024/02/01 04:04:17;;;;;;;18.25;8.95;;;8.10;99.90;;;;;;5043059;28;20479;-83
2024/02/01 04:06:46;;;;;;;16.63;8.87;;;8.10;99.90;;;;;;5037513;28;20021;-84
2024/02/01 04:09:12;;;;;;;19.00;9.77;;;8.10;99.90;;;;;;5034180;28;20454;-83
2024/02/01 04:11:38;;;;;;;15.63;8.13;;;8.10;99.90;;;;;;5036745;28;20052;-83
2024/02/01 04:14:03;;;;;;;22.73;10.02;;;8.10;99.90;;;;;;5037007;28;20028;-82
2024/02/01 04:16:29;;;;;;;24.17;8.98;;;8.10;99.90;;;;;;5037026;28;20096;-83
2024/02/01 04:18:57;;;;;;;23.85;9.48;;;8.10;99.90;;;;;;5037567;28;20472;-83
2024/02/01 04:21:23;;;;;;;16.45;8.60;;;8.10;99.90;;;;;;5036473;28;20021;-83
2024/02/01 04:23:49;;;;;;;25.85;10.00;;;8.10;99.90;;;;;;5033447;28;20028;-83
2024/02/01 04:26:16;;;;;;;19.30;9.30;;;8.00;99.90;;;;;;5043810;28;20024;-82
2024/02/01 04:28:43;;;;;;;21.73;9.30;;;8.10;99.90;;;;;;5035437;28;20017;-81
2024/02/01 04:31:08;;;;;;;20.63;9.27;;;8.10;99.90;;;;;;5033596;28;20120;-84
2024/02/01 04:33:34;;;;;;;21.52;9.90;;;8.10;99.90;;;;;;5039767;28;20129;-83
2024/02/01 04:36:00;;;;;;;19.90;8.95;;;8.10;99.90;;;;;;5037632;28;20025;-82
2024/02/01 04:38:25;;;;;;;24.80;9.38;;;8.00;99.90;;;;;;5038394;28;20175;-82
2024/02/01 04:40:52;;;;;;;27.33;9.90;;;8.10;99.90;;;;;;5036899;28;20024;-82
2024/02/01 04:43:19;;;;;;;19.30;8.82;;;8.00;99.90;;;;;;5032774;28;20159;-82
2024/02/01 04:45:48;;;;;;;20.60;9.43;;;8.00;99.90;;;;;;5034953;28;20045;-82
2024/02/01 04:48:14;;;;;;;23.17;9.48;;;8.00;99.90;;;;;;5035356;28;20483;-83
2024/02/01 04:50:40;;;;;;;16.67;8.77;;;8.10;99.90;;;;;;5038704;28;20028;-82
2024/02/01 04:53:06;;;;;;;22.15;9.27;;;8.00;99.90;;;;;;5038295;28;20025;-82
2024/02/01 04:55:32;;;;;;;22.88;9.55;;;8.10;99.90;;;;;;5042735;28;20033;-84
2024/02/01 04:57:58;;;;;;;16.98;9.00;;;8.10;99.90;;;;;;5046425;28;20025;-83
2024/02/01 05:00:24;;;;;;;17.40;9.13;;;8.10;99.90;;;;;;5035597;28;20014;-83
2024/02/01 05:02:49;;;;;;;17.17;9.45;;;8.10;99.90;;;;;;5043189;28;20028;-84
2024/02/01 05:05:17;;;;;;;22.25;9.77;;;8.00;99.90;;;;;;5039855;28;20036;-82
2024/02/01 05:07:43;;;;;;;17.75;9.13;;;8.10;99.90;;;;;;5033355;28;20057;-82
2024/02/01 05:10:09;;;;;;;22.60;10.10;;;8.00;99.90;;;;;;5037414;28;20026;-83
2024/02/01 05:12:35;;;;;;;19.27;8.90;;;8.10;99.90;;;;;;5046834;28;20025;-82
2024/02/01 05:15:02;;;;;;;19.10;9.65;;;8.10;99.90;;;;;;5035355;28;20026;-82
2024/02/01 05:17:28;;;;;;;19.48;8.85;;;8.10;99.90;;;;;;5036902;28;20119;-82
2024/02/01 05:19:53;;;;;;;17.70;9.68;;;8.10;99.90;;;;;;5041842;28;20109;-83
2024/02/01 05:22:19;;;;;;;16.13;8.48;;;8.10;99.90;;;;;;5037309;28;20108;-82
2024/02/01 05:24:44;;;;;;;18.95;8.77;;;8.10;99.90;;;;;;5041155;28;20028;-83
2024/02/01 05:27:10;;;;;;;24.15;9.70;;;8.00;99.90;;;;;;5039660;28;20052;-83
2024/02/01 05:29:37;;;;;;;22.13;9.93;;;8.00;99.90;;;;;;5039949;28;20117;-82
2024/02/01 05:32:06;;;;;;;19.23;8.88;;;8.10;99.90;;;;;;5043793;28;20040;-83
2024/02/01 05:34:33;;;;;;;26.80;10.18;;;8.10;99.90;;;;;;5041270;28;20044;-82
2024/02/01 05:36:58;;;;;;;23.27;9.80;;;8.10;99.90;;;;;;5043261;28;20063;-82
2024/02/01 05:39:24;;;;;;;20.50;9.68;;;8.00;99.90;;;;;;5034071;28;20045;-82
2024/02/01 05:41:51;;;;;;;18.45;9.15;;;8.10;99.90;;;;;;5044244;28;20025;-81
2024/02/01 05:44:16;;;;;;;19.95;8.40;;;8.10;99.90;;;;;;5037722;28;20044;-83
2024/02/01 05:46:47;;;;;;;19.08;8.70;;;8.10;99.90;;;;;;5039846;28;20026;-81
2024/02/01 05:49:12;;;;;;;;;;;8.10;99.90;;;;;;5042397;28;20112;-82
2024/02/01 05:51:38;;;;;;;19.80;8.93;;;8.10;99.90;;;;;;5047382;28;19999;-82
2024/02/01 05:54:04;;;;;;;21.70;8.85;;;8.10;99.90;;;;;;5041993;28;20025;-82
2024/02/01 05:56:30;;;;;;;22.48;9.40;;;8.10;99.90;;;;;;5043482;28;20104;-82
2024/02/01 05:58:56;;;;;;;26.05;10.05;;;8.10;99.90;;;;;;5040581;28;20123;-84
2024/02/01 06:01:21;;;;;;;21.73;8.85;;;8.00;99.90;;;;;;5049131;28;20028;-84
2024/02/01 06:03:47;;;;;;;18.52;8.80;;;8.10;99.90;;;;;;5045582;28;20025;-82
2024/02/01 06:06:12;;;;;;;18.65;9.18;;;8.10;99.90;;;;;;5037656;28;20056;-81
2024/02/01 06:08:38;;;;;;;21.73;9.70;;;8.10;99.90;;;;;;5039639;28;20021;-83
2024/02/01 06:11:03;;;;;;;26.42;9.68;;;8.00;99.90;;;;;;5035451;28;20037;-82
2024/02/01 06:13:29;;;;;;;18.35;8.93;;;8.10;99.90;;;;;;5045152;28;20021;-82
2024/02/01 06:15:54;;;;;;;25.75;9.77;;;8.10;99.90;;;;;;5041465;28;20024;-83
2024/02/01 06:18:20;;;;;;;17.08;9.35;;;8.10;99.90;;;;;;5036344;28;20376;-83
2024/02/01 06:20:46;;;;;;;21.55;9.50;;;8.00;99.90;;;;;;5036852;28;20491;-82
2024/02/01 06:23:11;;;;;;;17.00;8.70;;;8.10;99.90;;;;;;5043239;28;20047;-82
2024/02/01 06:25:38;;;;;;;18.33;9.23;;;8.10;99.90;;;;;;5038827;28;20093;-83
2024/02/01 06:28:04;;;;;;;20.58;9.80;;;8.00;99.90;;;;;;5046476;28;20024;-82
2024/02/01 06:30:30;;;;;;;19.98;9.50;;;8.10;99.90;;;;;;5040131;28;20017;-83
2024/02/01 06:32:56;;;;;;;21.25;9.50;;;8.10;99.90;;;;;;5036488;28;20381;-84
2024/02/01 06:35:22;;;;;;;18.77;9.68;;;8.00;99.90;;;;;;5037685;28;20530;-83
2024/02/01 06:38:04;;;;;;;20.67;9.95;;;8.10;99.90;;;;;;5048523;28;20061;-81
2024/02/01 06:40:37;;;;;;;20.63;9.60;;;8.00;99.90;;;;;;5044339;28;20028;-83
2024/02/01 06:46:08;;;;;;;23.40;10.13;;;8.10;99.90;;;;;;5019890;28;20573;-83
2024/02/01 06:48:41;;;;;;;18.88;9.70;;;8.10;99.90;;;;;;5004928;28;20044;-82
2024/02/01 06:51:25;;;;;;;23.23;10.57;;;8.10;99.90;;;;;;4995727;28;20702;-83
2024/02/01 06:54:05;;;;;;;23.50;10.18;;;8.10;99.90;;;;;;5019378;28;20053;-83
2024/02/01 06:56:51;;;;;;;23.30;10.93;;;8.10;99.90;;;;;;5000846;28;20034;-82
2024/02/01 06:59:31;;;;;;;30.45;11.52;;;8.00;99.90;;;;;;5012862;28;20021;-81
2024/02/01 07:02:14;;;;;;;24.93;10.87;;;8.10;99.90;;;;;;4992491;28;20026;-83
2024/02/01 07:04:50;;;;;;;22.13;12.00;;;8.00;99.90;;;;;;5011898;28;20267;-82
2024/02/01 07:07:26;;;;;;;28.17;12.27;;;8.00;99.90;;;;;;5007810;28;20026;-83
2024/02/01 07:09:58;;;;;;;24.88;11.77;;;8.00;99.90;;;;;;5020094;28;20034;-82
2024/02/01 07:12:42;;;;;;;23.08;10.93;;;8.10;99.90;;;;;;5003571;28;20026;-83
2024/02/01 07:15:19;;;;;;;24.35;11.65;;;8.10;99.90;;;;;;5013561;28;20060;-83
2024/02/01 07:17:46;;;;;;;29.05;12.98;;;8.10;99.90;;;;;;5026023;28;20538;-83
2024/02/01 07:20:23;;;;;;;30.75;13.77;;;8.00;99.90;;;;;;5003685;28;20085;-82
2024/02/01 07:23:05;;;;;;;34.95;12.93;;;8.00;99.90;;;;;;5025332;28;20026;-83
2024/02/01 07:25:36;;;;;;;28.63;13.35;;;8.00;99.90;;;;;;5040386;28;20147;-82
2024/02/01 07:58:08;;;;;;;29.10;13.10;;;8.00;99.90;;;;;;5021444;28;20626;-81
2024/02/01 08:00:34;;;;;;;29.33;13.35;;;8.10;99.90;;;;;;5030848;28;20047;-81
2024/02/01 08:03:04;;;;;;;32.75;13.68;;;8.10;99.90;;;;;;5044413;28;20507;-81
2024/02/01 08:08:15;;;;;;;26.65;11.95;;;8.10;99.90;;;;;;5029415;28;19955;-81
2024/02/01 08:10:41;;;;;;;30.92;12.88;;;8.10;99.90;;;;;;5034684;28;20064;-80
2024/02/01 08:13:07;;;;;;;29.60;14.60;;;8.10;99.90;;;;;;5032438;28;20048;-80
2024/02/01 08:15:41;;;;;;;22.95;12.75;;;8.10;99.90;;;;;;5029450;28;20026;-81
2024/02/01 08:18:10;;;;;;;28.98;14.73;;;8.10;99.90;;;;;;5043225;28;20419;-81
2024/02/01 08:20:37;;;;;;;33.30;14.60;;;8.10;99.90;;;;;;5035799;28;20052;-80
2024/02/01 08:23:03;;;;;;;31.20;14.07;;;8.10;99.90;;;;;;5027284;28;20068;-82
2024/02/01 08:25:30;;;;;;;35.42;15.45;;;8.10;99.90;;;;;;5025319;28;20439;-81
2024/02/01 08:27:57;;;;;;;26.10;13.75;;;8.10;99.90;;;;;;5032726;28;20033;-82
2024/02/01 08:30:27;;;;;;;39.30;15.70;;;8.10;99.90;;;;;;5026491;28;20450;-81
2024/02/01 08:32:53;;;;;;;29.50;13.15;;;8.10;99.90;;;;;;5030212;28;20486;-81
2024/02/01 08:35:19;;;;;;;27.48;14.18;;;8.10;99.90;;;;;;5029822;28;20099;-80
2024/02/01 08:37:45;;;;;;;28.83;13.93;;;8.10;99.90;;;;;;5029720;28;20030;-81
2024/02/01 08:40:17;;;;;;;28.52;12.55;;;8.10;99.90;;;;;;5021355;28;20510;-82
2024/02/01 08:42:48;;;;;;;28.88;13.30;;;8.10;99.90;;;;;;5023545;28;20057;-81
2024/02/01 08:45:17;;;;;;;29.38;13.80;;;8.10;99.90;;;;;;5025924;28;20028;-83
2024/02/01 08:47:45;;;;;;;27.02;13.90;;;8.10;99.90;;;;;;5027908;28;20067;-82
2024/02/01 08:50:11;;;;;;;29.80;14.45;;;8.10;99.90;;;;;;5031614;28;20056;-80
2024/02/01 08:52:37;;;;;;;26.90;13.10;;;8.10;99.90;;;;;;5034452;28;20029;-82
2024/02/01 08:55:10;;;;;;;26.27;12.52;;;8.10;99.90;;;;;;5035554;28;20029;-81
2024/02/01 08:57:40;;;;;;;26.52;12.98;;;8.10;99.90;;;;;;5030654;28;20091;-82
2024/02/01 09:00:25;;;;;;;28.10;13.10;;;8.10;99.90;;;;;;5031049;28;20555;-81
2024/02/01 09:05:51;;;;;;;24.17;12.80;;;8.10;99.90;;;;;;5035248;28;20403;-80
2024/02/01 09:08:36;;;;;;;30.77;14.63;;;8.10;99.90;;;;;;5029587;28;20033;-82
2024/02/01 09:11:11;;;;;;;31.67;13.43;;;8.10;99.90;;;;;;5037216;28;20059;-81
2024/02/01 09:13:37;;;;;;;30.02;14.50;;;8.10;99.90;;;;;;5020809;28;20044;-81
2024/02/01 09:16:03;;;;;;;30.23;14.45;;;8.10;99.90;;;;;;5041182;28;20044;-82
2024/02/01 09:18:29;;;;;;;33.63;15.02;;;8.10;99.90;;;;;;5017218;28;20022;-80
2024/02/01 09:20:55;;;;;;;30.35;15.23;;;8.10;99.90;;;;;;5011577;28;20096;-81
2024/02/01 09:23:24;;;;;;;30.85;13.93;;;8.10;99.90;;;;;;5034322;28;20124;-83
2024/02/01 09:25:49;;;;;;;26.98;13.88;;;8.10;99.90;;;;;;5037461;28;20023;-81
2024/02/01 09:28:15;;;;;;;33.17;14.25;;;8.10;99.90;;;;;;5022597;28;20032;-81
2024/02/01 09:30:45;;;;;;;27.80;14.63;;;8.10;99.90;;;;;;5034575;28;20033;-81
2024/02/01 09:33:15;;;;;;;32.22;15.45;;;8.10;99.90;;;;;;5030856;28;20056;-81
2024/02/01 09:35:41;;;;;;;34.78;14.65;;;8.10;99.90;;;;;;5025115;28;20108;-82
2024/02/01 09:38:07;;;;;;;30.00;14.18;;;8.10;99.90;;;;;;5010435;28;20125;-81
2024/02/01 09:40:33;;;;;;;27.40;14.38;;;8.10;99.90;;;;;;5015445;28;20101;-81
2024/02/01 09:42:59;;;;;;;33.67;14.10;;;8.10;99.90;;;;;;5035349;28;20084;-81
2024/02/01 09:45:28;;;;;;;30.05;13.20;;;8.10;99.90;;;;;;5042001;28;20028;-80
2024/02/01 09:47:59;;;;;;;33.15;14.45;;;8.10;99.90;;;;;;5034295;28;20017;-81
2024/02/01 09:50:25;;;;;;;28.02;13.77;;;8.10;99.90;;;;;;5031159;28;20035;-81
2024/02/01 09:52:51;;;;;;;32.65;14.77;;;8.10;99.90;;;;;;5039616;28;20111;-81
2024/02/01 09:55:22;;;;;;;33.35;13.55;;;8.10;99.90;;;;;;5034844;28;20491;-81
2024/02/01 09:57:48;;;;;;;;;;;8.10;99.90;;;;;;5039418;28;20033;-81
2024/02/01 10:00:26;;;;;;;28.23;12.48;;;8.10;99.90;;;;;;5037579;28;19904;-80
2024/02/01 10:02:56;;;;;;;27.45;12.50;;;8.20;99.90;;;;;;5047033;28;20029;-80
2024/02/01 10:05:22;;;;;;;30.85;13.43;;;8.20;99.90;;;;;;5039517;28;20032;-83
2024/02/01 10:07:48;;;;;;;26.13;13.00;;;8.20;99.90;;;;;;5037345;28;20025;-80
2024/02/01 10:10:15;;;;;;;29.40;14.07;;;8.20;99.90;;;;;;5039749;28;20082;-81
2024/02/01 10:12:41;;;;;;;29.38;13.55;;;8.20;99.90;;;;;;5039779;28;20028;-81
2024/02/01 10:15:11;;;;;;;32.83;14.10;;;8.20;99.90;;;;;;5040397;28;20024;-82
2024/02/01 10:17:47;;;;;;;28.90;12.90;;;8.20;99.90;;;;;;5039311;28;20436;-80
2024/02/01 10:20:39;;;;;;;31.42;14.23;;;8.20;99.90;;;;;;5039522;28;20482;-81
2024/02/01 10:23:13;;;;;;;34.08;13.18;;;8.20;99.90;;;;;;5026338;28;20475;-81
2024/02/01 10:25:40;;;;;;;28.83;12.85;;;8.20;99.90;;;;;;5032468;28;20017;-81
2024/02/01 10:28:11;;;;;;;26.83;13.27;;;8.20;99.90;;;;;;5033591;28;21009;-81
2024/02/01 10:30:42;;;;;;;32.15;11.88;;;8.20;99.90;;;;;;5032881;28;20032;-80
2024/02/01 10:33:09;;;;;;;23.38;11.25;;;8.20;99.90;;;;;;5037917;28;20187;-82
2024/02/01 10:35:36;;;;;;;25.20;11.45;;;8.20;99.90;;;;;;5041899;28;20032;-81
2024/02/01 10:38:14;;;;;;;23.92;12.27;;;8.20;99.90;;;;;;5038309;28;20099;-81
2024/02/01 10:40:49;;;;;;;25.45;10.63;;;8.20;99.90;;;;;;5036555;28;20017;-81
2024/02/01 10:43:23;;;;;;;23.05;11.07;;;8.20;99.90;;;;;;5036416;28;20499;-81
2024/02/01 10:46:06;;;;;;;23.08;10.38;;;8.20;99.90;;;;;;5034152;28;20025;-80
2024/02/01 10:48:52;;;;;;;22.88;10.57;;;8.20;99.90;;;;;;5035199;28;20116;-82
2024/02/01 10:51:19;;;;;;;24.75;10.75;;;8.30;99.90;;;;;;5032976;28;20029;-83
2024/02/01 10:53:46;;;;;;;27.27;11.75;;;8.30;99.90;;;;;;5040251;28;20021;-83
2024/02/01 10:56:16;;;;;;;23.90;10.25;;;8.30;99.90;;;;;;5036750;28;20028;-83
2024/02/01 10:58:42;;;;;;;20.05;10.13;;;8.30;99.90;;;;;;5035925;28;20025;-81
2024/02/01 11:01:09;;;;;;;22.40;11.18;;;8.30;99.90;;;;;;5041451;28;20019;-82
2024/02/01 11:03:35;;;;;;;27.20;10.90;;;8.30;99.90;;;;;;5040301;28;20028;-82
2024/02/01 11:06:01;;;;;;;23.48;10.38;;;8.30;99.90;;;;;;5034301;28;20037;-82
2024/02/01 11:08:32;;;;;;;21.38;10.43;;;8.30;99.90;;;;;;5039540;28;20018;-82
2024/02/01 11:11:15;;;;;;;21.90;9.93;;;8.30;99.90;;;;;;5034720;28;20028;-81
2024/02/01 11:13:42;;;;;;;22.55;10.18;;;8.30;99.90;;;;;;5038757;28;20021;-80
2024/02/01 11:16:07;;;;;;;25.90;10.57;;;8.30;99.90;;;;;;5038290;28;20494;-81
2024/02/01 11:18:37;;;;;;;24.75;10.75;;;8.30;99.90;;;;;;5037966;28;20032;-81
2024/02/01 11:21:06;;;;;;;26.08;10.57;;;8.30;99.90;;;;;;5036675;28;20109;-81
2024/02/01 11:23:39;;;;;;;26.70;11.63;;;8.30;99.90;;;;;;5035180;28;20021;-81
2024/02/01 11:26:15;;;;;;;27.08;11.60;;;8.30;99.90;;;;;;5040535;28;20017;-81
2024/02/01 11:28:40;;;;;;;21.52;10.45;;;8.30;99.90;;;;;;5028523;28;20059;-82
2024/02/01 11:31:06;;;;;;;25.48;11.48;;;8.30;99.90;;;;;;5043434;28;20025;-81
2024/02/01 11:33:33;;;;;;;22.80;11.18;;;8.40;99.90;;;;;;5041650;28;20557;-81
2024/02/01 11:35:59;;;;;;;21.52;10.55;;;8.40;99.90;;;;;;5038179;28;20025;-81
2024/02/01 11:38:27;;;;;;;19.90;10.50;;;8.40;99.90;;;;;;5035281;28;20056;-82
2024/02/01 11:40:53;;;;;;;21.33;9.93;;;8.50;99.90;;;;;;5040813;28;20017;-81
2024/02/01 11:43:19;;;;;;;20.10;10.75;;;8.50;99.90;;;;;;5039261;28;20063;-82
2024/02/01 11:45:53;;;;;;;23.98;10.52;;;8.50;99.90;;;;;;5031102;28;20045;-81
2024/02/01 11:48:21;;;;;;;31.63;10.50;;;8.50;99.90;;;;;;5037013;28;20021;-82
2024/02/01 11:50:53;;;;;;;17.75;10.00;;;8.50;99.90;;;;;;5037700;28;20028;-81
2024/02/01 11:53:20;;;;;;;18.00;8.60;;;8.50;99.90;;;;;;5037427;28;20029;-82
2024/02/01 11:55:45;;;;;;;21.88;10.07;;;8.50;99.90;;;;;;5034570;28;20028;-81
2024/02/01 11:58:14;;;;;;;15.77;8.65;;;8.50;99.90;;;;;;5035949;28;20017;-82
2024/02/01 12:00:40;;;;;;;18.15;8.65;;;8.50;99.90;;;;;;5037979;28;20021;-82
2024/02/01 12:03:05;;;;;;;22.70;7.95;;;8.60;99.90;;;;;;5037198;28;20025;-81
2024/02/01 12:05:32;;;;;;;17.17;8.13;;;8.60;99.90;;;;;;5038324;28;20017;-79
2024/02/01 12:08:03;;;;;;;15.77;7.60;;;8.60;99.90;;;;;;5043541;28;20036;-82
2024/02/01 12:10:31;;;;;;;14.18;7.38;;;8.60;99.90;;;;;;5036604;28;20383;-81
2024/02/01 12:12:57;;;;;;;17.58;7.00;;;8.50;99.90;;;;;;5034708;28;20033;-81
2024/02/01 12:15:22;;;;;;;14.85;6.32;;;8.50;99.90;;;;;;5037906;28;20483;-82
2024/02/01 12:17:50;;;;;;;16.75;7.28;;;8.50;99.90;;;;;;5035901;28;20061;-82
2024/02/01 12:20:16;;;;;;;11.40;6.60;;;8.50;99.90;;;;;;5029732;28;20562;-81
2024/02/01 12:22:47;;;;;;;11.80;6.38;;;8.50;99.90;;;;;;5030941;28;20053;-81
2024/02/01 12:25:15;;;;;;;11.30;5.28;;;8.50;99.90;;;;;;5050001;28;20022;-81
2024/02/01 12:27:45;;;;;;;11.50;5.70;;;8.50;99.90;;;;;;5036050;28;20399;-80
2024/02/01 12:30:14;;;;;;;13.27;5.35;;;8.50;99.90;;;;;;5040508;28;20474;-81
2024/02/01 12:32:43;;;;;;;9.15;4.70;;;8.40;99.90;;;;;;5038604;28;20030;-82
2024/02/01 12:35:14;;;;;;;9.13;5.30;;;8.40;99.90;;;;;;5035829;28;20029;-82
2024/02/01 12:37:41;;;;;;;8.50;5.05;;;8.40;99.90;;;;;;5031058;28;20391;-80
2024/02/01 12:40:11;;;;;;;8.48;4.43;;;8.40;99.90;;;;;;5022643;28;20567;-81
2024/02/01 12:42:41;;;;;;;14.32;5.35;;;8.40;99.90;;;;;;5029391;28;20057;-80
2024/02/01 12:45:08;;;;;;;9.65;4.57;;;8.40;99.90;;;;;;5034032;28;20113;-80
2024/02/01 12:47:41;;;;;;;12.68;5.57;;;8.40;99.90;;;;;;5032129;28;20021;-81
2024/02/01 12:50:07;;;;;;;11.45;4.53;;;8.40;99.90;;;;;;5038133;28;20103;-81
2024/02/01 12:52:34;;;;;;;10.93;4.90;;;8.40;99.90;;;;;;5039265;28;20025;-80
2024/02/01 12:55:00;;;;;;;9.85;4.97;;;8.40;99.90;;;;;;5036813;28;20025;-80
2024/02/01 12:57:29;;;;;;;11.70;4.63;;;8.40;99.90;;;;;;5035806;28;20051;-80
2024/02/01 12:59:58;;;;;;;9.27;4.45;;;8.40;99.90;;;;;;5026406;28;20029;-81
2024/02/01 13:02:25;;;;;;;9.05;4.60;;;8.40;99.90;;;;;;5033018;28;20395;-81
2024/02/01 13:04:51;;;;;;;7.72;4.22;;;8.40;99.90;;;;;;5037068;28;20067;-81
2024/02/01 13:07:17;;;;;;;8.48;4.30;;;8.40;99.90;;;;;;5040573;28;20024;-81
2024/02/01 13:09:43;;;;;;;7.72;4.20;;;8.40;99.90;;;;;;5032167;28;20021;-81
2024/02/01 13:12:18;;;;;;;7.07;3.65;;;8.40;99.90;;;;;;5035440;28;20022;-80
2024/02/01 13:15:00;;;;;;;7.05;3.35;;;8.40;99.90;;;;;;5039651;28;20100;-80
2024/02/01 13:17:30;;;;;;;6.47;2.95;;;8.40;99.90;;;;;;5040708;28;20041;-81
2024/02/01 13:19:55;;;;;;;4.20;2.73;;;8.40;99.90;;;;;;5042385;28;20040;-82
2024/02/01 13:22:22;;;;;;;3.00;1.90;;;8.40;99.90;;;;;;5041574;28;20020;-80
2024/02/01 13:24:48;;;;;;;3.17;1.95;;;8.40;99.90;;;;;;5031408;28;20033;-81
2024/02/01 13:27:14;;;;;;;3.85;1.65;;;8.40;99.90;;;;;;5039613;28;20056;-81